Texas General Land Office
 Texas General Land Office
 George P. Bush, Commissioner

 Oil Spill Prevention
 & Response

Texas Automated Buoy System
Real Time Ocean Observations
Supporting Oil Spill Prevention and
Response since 1995
Geochemical and Environmental Research Group

NOAA - NDBC Buoy 42035 -- Texas Automated Buoy System

NBDC Buoy 42035
Galveston
Conditions at 10/19/2018 08:20 UTC (10/19/2018 08:20 UTC)
29° 14.7830'N   94° 24.5000'W
22NM East of Galveston, TX
Anemometer height: 5m
Water Depth: 52 feet (16 meters)
Wind: 11.0 m/s (21.4 kts)
          From 70°T (ENE)
Wind Gust: 14.00 m/s (27.2 kts) Pressure: 1020.0 mb (30.12 inHg)
Air Temp: 24°C (76 °F) Dewpoint: 23°C (73°F) Relative Humidity: 91%
Sea Surf Temp: 26 °C (79 °F) Wave Height: -99.0m (-324.8 ft) Wave Period: -99
  


IMPORTANT: Notice to Mariners


   Date      Time    Speed     Dir   Gust    AtmPr   AirT   DewPt   WaterT  RelH  WvHt  WvPer
          |  (UTC) | (m/s) |  (°T) | (m/s) |  (mb) |  (°C) |  (°C) |  (°C) | (%) | (m) | (s) |
==========+========+=======+=======+=======+=======+=======+=======+=======+=====+=====+=====+
10/19/2018 00:00:00    10.0      60    13.0 1021.60    24.8    22.0    26.1    84 -99.0  -99
10/19/2018 00:10:00    11.0      60    13.0 1021.70    24.9    21.7    26.1    82 -99.0  -99
10/19/2018 00:20:00    11.0      60    13.0 1021.70    25.0    21.7    26.2    81 -99.0  -99
10/19/2018 00:30:00    11.0      60    13.0 1021.80    25.1    22.0    26.2    82 -99.0  -99
10/19/2018 00:40:00    10.0      60    13.0 1022.00    25.1    22.0    26.2    82 -99.0  -99
10/19/2018 00:50:00    11.0      60    13.0 1022.10    25.0    21.7    26.1    81   1.7    8
10/19/2018 01:00:00    11.0      60    13.0 1022.40    25.0    21.8    26.1    82 -99.0  -99
10/19/2018 01:10:00    11.0      60    13.0 1022.40    24.9    21.7    26.1    82 -99.0  -99
10/19/2018 01:20:00    10.0      60    12.0 1022.50    25.0    22.0    26.1    83 -99.0  -99
10/19/2018 01:30:00    10.0      60    13.0 1022.60    24.9    21.9    26.1    83 -99.0  -99
10/19/2018 01:40:00    10.0      60    12.0 1022.60    24.9    22.0   -99.0    83 -99.0  -99
10/19/2018 01:50:00    11.0      70    13.0 1022.60    24.9    21.9    26.1    83   1.7    5
10/19/2018 02:00:00    11.0      70    13.0 1022.50    25.0    21.9    26.1    82 -99.0  -99
10/19/2018 02:10:00    11.0      70    13.0 1022.50    25.0    22.0    26.1    83 -99.0  -99
10/19/2018 02:20:00    11.0      70    13.0 1022.50    24.9    22.1   -99.0    84 -99.0  -99
10/19/2018 02:30:00    11.0      70    13.0 1022.50    24.9    21.8    26.1    82 -99.0  -99
10/19/2018 02:40:00    11.0      70    13.0 1022.50    24.9    21.8    26.1    82 -99.0  -99
10/19/2018 02:50:00    11.0      60    13.0 1022.50    24.9    22.1   -99.0    84   1.8    8
10/19/2018 03:00:00    10.0      60    13.0 1022.60   -99.0   -99.0    26.1   100 -99.0  -99
10/19/2018 03:10:00    11.0      60    13.0 1022.60    24.5    22.1   -99.0    86 -99.0  -99
10/19/2018 03:20:00    11.0      60    14.0 1022.50    24.5    22.1    26.1    86 -99.0  -99
10/19/2018 03:30:00    11.0      60    14.0 1022.50    24.4    22.1    26.1    87 -99.0  -99
10/19/2018 03:40:00    12.0      60    14.0 1022.50    24.2    21.9    26.1    87 -99.0  -99
10/19/2018 03:50:00    11.0      60    14.0 1022.70    24.1    21.8    26.1    87   1.8    5
10/19/2018 04:00:00    11.0      60    13.0 1022.50    23.9    21.9    26.1    88 -99.0  -99
10/19/2018 04:10:00    11.0      60    13.0 1022.40    23.8    21.8    26.1    88 -99.0  -99
10/19/2018 04:20:00    11.0      60    14.0 1022.20    23.8    21.9    26.1    89 -99.0  -99
10/19/2018 04:30:00    11.0      60    13.0 1022.10    23.8    21.9    26.1    89 -99.0  -99
10/19/2018 04:40:00    11.0      60    14.0 1022.10    23.8    21.9    26.1    89 -99.0  -99
10/19/2018 04:50:00    11.0      60    14.0 1022.00    23.9    21.9    26.1    88   1.9    6
10/19/2018 05:00:00    11.0      70    13.0 1021.80    23.9    21.8    26.1    88 -99.0  -99
10/19/2018 05:10:00    11.0      70    14.0 1021.80    23.8    21.8    26.1    88 -99.0  -99
10/19/2018 05:20:00    11.0      70    14.0 1021.90    23.8    22.0    26.1    89 -99.0  -99
10/19/2018 05:30:00    11.0      70    13.0 1021.80    23.8    21.9    26.1    89 -99.0  -99
10/19/2018 05:40:00   -99.0     -99   -99.0  -99.00   -99.0   -99.0   -99.0   100   1.9    8
10/19/2018 05:50:00    11.0      60    13.0 1021.40    23.7    22.1    26.1    90   1.9  -99
10/19/2018 06:00:00    11.0      70    13.0 1021.20    23.6    22.1    26.1    91 -99.0  -99
10/19/2018 06:10:00    11.0      70    14.0 1021.20    23.6    22.0    26.1    90 -99.0  -99
10/19/2018 06:20:00    11.0      70    13.0 1021.20    23.7    22.1    26.1    90 -99.0  -99
10/19/2018 06:30:00    11.0      60    13.0 1021.10    23.6    21.9    26.1    90 -99.0  -99
10/19/2018 06:40:00    11.0      60    14.0 1021.00    23.5    21.9    26.1    90 -99.0  -99
10/19/2018 06:50:00    11.0      70    13.0 1020.90    23.6    22.0    26.0    90   1.9    5
10/19/2018 07:00:00    11.0      70    13.0 1021.10    23.6    22.1    26.0    91 -99.0  -99
10/19/2018 07:10:00    11.0      70    13.0 1021.00    23.7    22.2   -99.0    91 -99.0  -99
10/19/2018 07:20:00    11.0      70    13.0 1020.70    23.7    22.2    26.0    91 -99.0  -99
10/19/2018 07:30:00    11.0      70    13.0 1020.70    23.9    22.5    26.0    91 -99.0  -99
10/19/2018 07:40:00    10.0      70    13.0 1020.70    23.9    22.5    26.0    91 -99.0  -99
10/19/2018 07:50:00    11.0      70    13.0 1020.60    23.9    22.4    26.0    91   1.8    6
10/19/2018 08:00:00    11.0      70    13.0 1020.30    24.0    22.5    26.0    91 -99.0  -99
10/19/2018 08:10:00    11.0      70    14.0 1020.10    24.1    22.6    26.0    91 -99.0  -99
10/19/2018 08:20:00    11.0      70    14.0 1020.00    24.2    22.7    26.0    91 -99.0  -99